Ontario International Airport
KONT : now visible

Airfield :











YOU CAN JOIN US ON...

 
LOGIN :

Register | Disclaimer

   EN    FR    IT 

 









Legend :    VFR   Marginal VFR   IFR   Intensive IFR   Very Intensive IFR
Visi :
Ceiling :
>= 8 km
>= 3000ft
5 to 8 km
1000 to 3000 ft
1500m to 5 km
500 to 1000 ft
800 to 1500m
200 to 500 ft
< 800m
< 200 ft
Symbols :   Thunderstorms  Fog  Heavy snow  Heavy precipitations  Wind > 20 kt







- Airport Elevation : 944 ft
- IATA code : ONT


KONT - Ontario International

CURRENT METAR :
  • 190953Z 27005KT 10SM FEW010 18/15 A2992 RMK AO2 SLP117 T01780150

EXPIRED METARs :
  • 190853Z VRB03KT 10SM FEW010 18/14 A2992 RMK AO2 SLP118 T01830144 50000
  • 190753Z 25004KT 10SM CLR 18/15 A2992 RMK AO2 SLP119 T01830150 403110161

TAF KONT
Valid from the 19 at 06:00 until the 20 at 12:00 UTC


190520Z 1906/2012 VRB04KT P6SM SKC
FM191200 VRB04KT 3SM BR BKN007
FM191500 VRB04KT 6SM HZ SKC
FM192100 25011KT P6SM SKC
FM200500 VRB04KT P6SM SKC
No reported NOTAMs for that airfield.



MET'MAP, your aeronautical weather chart ! - Copyright ORBIFLY December 2007 - Disclaimer

ORBIFLY MET'MAP TEAM :

Programming & Development : Alexandra Zaïnal
Concept & Development : Baudouin d'Aumeries
Co-Development & Prog : Marc-Olivier Méhu
Technical & hardware support : Manuel Goepfert

Contact : metmap@orbifly.com




SOURCES & CREDITS :

   NOAA       Earth
Advisory